sensor_id;sensor_type;location;lat;lon;timestamp;pressure;altitude;pressure_sealevel;temperature;humidity
34925;BME280;21130;51.728;8.748;2023-05-17T00:01:52;101016.84;;;5.71;100.00
34925;BME280;21130;51.728;8.748;2023-05-17T00:04:20;101013.66;;;5.67;100.00
34925;BME280;21130;51.728;8.748;2023-05-17T00:06:46;101012.53;;;5.61;100.00
34925;BME280;21130;51.728;8.748;2023-05-17T00:09:14;101014.84;;;5.58;100.00
34925;BME280;21130;51.728;8.748;2023-05-17T00:11:40;101019.03;;;5.54;100.00
34925;BME280;21130;51.728;8.748;2023-05-17T00:14:07;101016.34;;;5.60;100.00
34925;BME280;21130;51.728;8.748;2023-05-17T00:16:33;101020.06;;;5.74;100.00
34925;BME280;21130;51.728;8.748;2023-05-17T00:19:00;101023.06;;;5.79;100.00
34925;BME280;21130;51.728;8.748;2023-05-17T00:21:26;101014.22;;;5.91;100.00
34925;BME280;21130;51.728;8.748;2023-05-17T00:23:53;101014.84;;;5.86;100.00
34925;BME280;21130;51.728;8.748;2023-05-17T00:26:21;101012.13;;;5.93;100.00
34925;BME280;21130;51.728;8.748;2023-05-17T00:28:47;101015.16;;;5.98;100.00
34925;BME280;21130;51.728;8.748;2023-05-17T00:31:14;101017.31;;;6.02;100.00
34925;BME280;21130;51.728;8.748;2023-05-17T00:33:40;101016.50;;;6.09;100.00
34925;BME280;21130;51.728;8.748;2023-05-17T00:36:07;101011.22;;;6.14;100.00
34925;BME280;21130;51.728;8.748;2023-05-17T00:38:33;101017.56;;;6.14;100.00
34925;BME280;21130;51.728;8.748;2023-05-17T00:41:00;101007.66;;;6.20;100.00
34925;BME280;21130;51.728;8.748;2023-05-17T00:43:27;101017.22;;;6.24;100.00
34925;BME280;21130;51.728;8.748;2023-05-17T00:45:54;101014.09;;;6.34;100.00
34925;BME280;21130;51.728;8.748;2023-05-17T00:48:20;101014.97;;;6.41;100.00
34925;BME280;21130;51.728;8.748;2023-05-17T00:50:49;101019.03;;;6.52;100.00
34925;BME280;21130;51.728;8.748;2023-05-17T00:53:16;101016.50;;;6.57;100.00
34925;BME280;21130;51.728;8.748;2023-05-17T00:55:44;101013.75;;;6.57;100.00
34925;BME280;21130;51.728;8.748;2023-05-17T00:58:11;101015.66;;;6.56;100.00
34925;BME280;21130;51.728;8.748;2023-05-17T01:00:39;101012.50;;;6.59;100.00
34925;BME280;21130;51.728;8.748;2023-05-17T01:03:06;101020.16;;;6.57;100.00
34925;BME280;21130;51.728;8.748;2023-05-17T01:05:32;101019.69;;;6.54;100.00
34925;BME280;21130;51.728;8.748;2023-05-17T01:07:59;101023.06;;;6.49;100.00
34925;BME280;21130;51.728;8.748;2023-05-17T01:10:43;101027.31;;;6.45;100.00
34925;BME280;21130;51.728;8.748;2023-05-17T01:13:17;101026.00;;;6.41;100.00
34925;BME280;21130;51.728;8.748;2023-05-17T01:15:52;101026.41;;;6.38;100.00
34925;BME280;21130;51.728;8.748;2023-05-17T01:18:29;101032.13;;;6.36;100.00
34925;BME280;21130;51.728;8.748;2023-05-17T01:21:00;101032.53;;;6.33;100.00
34925;BME280;21130;51.728;8.748;2023-05-17T01:23:35;101036.97;;;6.27;100.00
34925;BME280;21130;51.728;8.748;2023-05-17T01:26:10;101030.63;;;6.34;100.00
34925;BME280;21130;51.728;8.748;2023-05-17T01:28:42;101033.38;;;6.34;100.00
34925;BME280;21130;51.728;8.748;2023-05-17T01:31:13;101032.34;;;6.35;100.00
34925;BME280;21130;51.728;8.748;2023-05-17T01:33:40;101040.63;;;6.35;100.00
34925;BME280;21130;51.728;8.748;2023-05-17T01:36:07;101050.16;;;6.39;100.00
34925;BME280;21130;51.728;8.748;2023-05-17T01:38:33;101037.88;;;6.41;100.00
34925;BME280;21130;51.728;8.748;2023-05-17T01:41:04;101043.16;;;6.36;100.00
34925;BME280;21130;51.728;8.748;2023-05-17T01:43:38;101046.84;;;6.50;100.00
34925;BME280;21130;51.728;8.748;2023-05-17T01:46:11;101042.59;;;6.47;100.00
34925;BME280;21130;51.728;8.748;2023-05-17T01:48:48;101039.38;;;6.44;100.00
34925;BME280;21130;51.728;8.748;2023-05-17T01:51:18;101051.69;;;6.48;100.00
34925;BME280;21130;51.728;8.748;2023-05-17T01:53:54;101056.13;;;6.42;100.00
34925;BME280;21130;51.728;8.748;2023-05-17T01:56:26;101051.50;;;6.49;100.00
34925;BME280;21130;51.728;8.748;2023-05-17T01:58:55;101059.75;;;6.43;100.00
34925;BME280;21130;51.728;8.748;2023-05-17T02:01:26;101059.13;;;6.47;100.00
34925;BME280;21130;51.728;8.748;2023-05-17T02:03:53;101052.34;;;6.50;100.00
34925;BME280;21130;51.728;8.748;2023-05-17T02:06:20;101062.06;;;6.46;100.00
34925;BME280;21130;51.728;8.748;2023-05-17T02:08:46;101066.56;;;6.54;100.00
34925;BME280;21130;51.728;8.748;2023-05-17T02:11:13;101069.28;;;6.47;100.00
34925;BME280;21130;51.728;8.748;2023-05-17T02:13:39;101070.59;;;6.51;100.00
34925;BME280;21130;51.728;8.748;2023-05-17T02:16:06;101063.16;;;6.45;100.00
34925;BME280;21130;51.728;8.748;2023-05-17T02:18:34;101066.13;;;6.50;100.00
34925;BME280;21130;51.728;8.748;2023-05-17T02:21:01;101071.41;;;6.45;100.00
34925;BME280;21130;51.728;8.748;2023-05-17T02:23:28;101072.44;;;6.44;100.00
34925;BME280;21130;51.728;8.748;2023-05-17T02:25:55;101071.41;;;6.45;100.00
34925;BME280;21130;51.728;8.748;2023-05-17T02:28:21;101073.53;;;6.43;100.00
34925;BME280;21130;51.728;8.748;2023-05-17T02:30:47;101073.09;;;6.46;100.00
34925;BME280;21130;51.728;8.748;2023-05-17T02:33:14;101076.06;;;6.44;100.00
34925;BME280;21130;51.728;8.748;2023-05-17T02:35:41;101073.53;;;6.43;100.00
34925;BME280;21130;51.728;8.748;2023-05-17T02:38:08;101079.44;;;6.40;100.00
34925;BME280;21130;51.728;8.748;2023-05-17T02:40:34;101076.88;;;6.38;100.00
34925;BME280;21130;51.728;8.748;2023-05-17T02:43:01;101079.84;;;6.37;100.00
34925;BME280;21130;51.728;8.748;2023-05-17T02:45:27;101078.13;;;6.36;100.00
34925;BME280;21130;51.728;8.748;2023-05-17T02:47:53;101087.44;;;6.28;100.00
34925;BME280;21130;51.728;8.748;2023-05-17T02:50:20;101076.44;;;6.35;100.00
34925;BME280;21130;51.728;8.748;2023-05-17T02:52:47;101081.91;;;6.28;100.00
34925;BME280;21130;51.728;8.748;2023-05-17T02:55:14;101081.06;;;6.27;100.00
34925;BME280;21130;51.728;8.748;2023-05-17T02:57:42;101080.66;;;6.31;100.00
34925;BME280;21130;51.728;8.748;2023-05-17T03:00:08;101074.31;;;6.37;100.00
34925;BME280;21130;51.728;8.748;2023-05-17T03:02:35;101077.72;;;6.32;100.00
34925;BME280;21130;51.728;8.748;2023-05-17T03:05:01;101088.94;;;6.31;100.00
34925;BME280;21130;51.728;8.748;2023-05-17T03:07:28;101084.44;;;6.23;100.00
34925;BME280;21130;51.728;8.748;2023-05-17T03:09:56;101086.94;;;6.18;100.00
34925;BME280;21130;51.728;8.748;2023-05-17T03:12:23;101092.88;;;6.21;100.00
34925;BME280;21130;51.728;8.748;2023-05-17T03:14:49;101091.97;;;6.14;100.00
34925;BME280;21130;51.728;8.748;2023-05-17T03:17:15;101087.94;;;6.10;100.00
34925;BME280;21130;51.728;8.748;2023-05-17T03:19:42;101093.66;;;6.09;100.00
34925;BME280;21130;51.728;8.748;2023-05-17T03:22:08;101100.41;;;6.06;100.00
34925;BME280;21130;51.728;8.748;2023-05-17T03:24:35;101098.91;;;6.03;100.00
34925;BME280;21130;51.728;8.748;2023-05-17T03:27:03;101102.66;;;5.96;100.00
34925;BME280;21130;51.728;8.748;2023-05-17T03:29:30;101108.38;;;5.94;100.00
34925;BME280;21130;51.728;8.748;2023-05-17T03:31:56;101110.00;;;5.89;100.00
34925;BME280;21130;51.728;8.748;2023-05-17T03:34:23;101111.00;;;5.81;100.00
34925;BME280;21130;51.728;8.748;2023-05-17T03:36:49;101110.16;;;5.80;100.00
34925;BME280;21130;51.728;8.748;2023-05-17T03:39:15;101113.81;;;5.88;100.00
34925;BME280;21130;51.728;8.748;2023-05-17T03:41:42;101117.75;;;5.78;100.00
34925;BME280;21130;51.728;8.748;2023-05-17T03:44:10;101120.91;;;5.75;100.00
34925;BME280;21130;51.728;8.748;2023-05-17T03:46:36;101121.31;;;5.72;100.00
34925;BME280;21130;51.728;8.748;2023-05-17T03:49:03;101131.94;;;5.75;100.00
34925;BME280;21130;51.728;8.748;2023-05-17T03:51:29;101134.75;;;5.82;100.00
34925;BME280;21130;51.728;8.748;2023-05-17T03:53:58;101132.38;;;5.79;100.00
34925;BME280;21130;51.728;8.748;2023-05-17T03:56:25;101136.44;;;5.83;100.00
34925;BME280;21130;51.728;8.748;2023-05-17T03:58:51;101143.84;;;5.82;100.00
34925;BME280;21130;51.728;8.748;2023-05-17T04:01:19;101141.09;;;5.82;100.00
34925;BME280;21130;51.728;8.748;2023-05-17T04:03:46;101140.25;;;5.82;100.00
34925;BME280;21130;51.728;8.748;2023-05-17T04:06:13;101147.19;;;5.78;100.00
34925;BME280;21130;51.728;8.748;2023-05-17T04:08:40;101141.63;;;5.71;100.00
34925;BME280;21130;51.728;8.748;2023-05-17T04:11:06;101145.19;;;5.65;100.00
34925;BME280;21130;51.728;8.748;2023-05-17T04:13:37;101147.19;;;5.56;100.00
34925;BME280;21130;51.728;8.748;2023-05-17T04:16:04;101152.69;;;5.56;100.00
34925;BME280;21130;51.728;8.748;2023-05-17T04:18:33;101157.19;;;5.57;100.00
34925;BME280;21130;51.728;8.748;2023-05-17T04:21:00;101156.06;;;5.52;100.00
34925;BME280;21130;51.728;8.748;2023-05-17T04:23:26;101152.00;;;5.48;100.00
34925;BME280;21130;51.728;8.748;2023-05-17T04:25:52;101157.50;;;5.48;100.00
34925;BME280;21130;51.728;8.748;2023-05-17T04:28:19;101165.75;;;5.48;100.00
34925;BME280;21130;51.728;8.748;2023-05-17T04:30:48;101159.19;;;5.49;100.00
34925;BME280;21130;51.728;8.748;2023-05-17T04:33:14;101166.69;;;5.55;100.00
34925;BME280;21130;51.728;8.748;2023-05-17T04:35:43;101172.72;;;5.65;100.00
34925;BME280;21130;51.728;8.748;2023-05-17T04:38:09;101176.41;;;5.72;100.00
34925;BME280;21130;51.728;8.748;2023-05-17T04:40:36;101187.53;;;5.85;100.00
34925;BME280;21130;51.728;8.748;2023-05-17T04:43:03;101180.19;;;5.93;100.00
34925;BME280;21130;51.728;8.748;2023-05-17T04:45:29;101189.84;;;6.03;100.00
34925;BME280;21130;51.728;8.748;2023-05-17T04:47:57;101184.41;;;6.10;100.00
34925;BME280;21130;51.728;8.748;2023-05-17T04:50:26;101181.50;;;6.18;100.00
34925;BME280;21130;51.728;8.748;2023-05-17T04:52:54;101188.34;;;6.29;100.00
34925;BME280;21130;51.728;8.748;2023-05-17T04:55:20;101190.09;;;6.30;100.00
34925;BME280;21130;51.728;8.748;2023-05-17T04:57:50;101191.00;;;6.44;100.00
34925;BME280;21130;51.728;8.748;2023-05-17T05:00:16;101199.09;;;6.45;100.00
34925;BME280;21130;51.728;8.748;2023-05-17T05:02:45;101197.00;;;6.47;100.00
34925;BME280;21130;51.728;8.748;2023-05-17T05:05:12;101203.16;;;6.49;100.00
34925;BME280;21130;51.728;8.748;2023-05-17T05:07:38;101204.22;;;6.48;100.00
34925;BME280;21130;51.728;8.748;2023-05-17T05:10:07;101209.13;;;6.53;100.00
34925;BME280;21130;51.728;8.748;2023-05-17T05:12:33;101214.22;;;6.56;100.00
34925;BME280;21130;51.728;8.748;2023-05-17T05:15:00;101211.13;;;6.66;100.00
34925;BME280;21130;51.728;8.748;2023-05-17T05:17:29;101211.16;;;6.73;100.00
34925;BME280;21130;51.728;8.748;2023-05-17T05:19:55;101220.13;;;6.81;100.00
34925;BME280;21130;51.728;8.748;2023-05-17T05:22:21;101215.50;;;6.88;100.00
34925;BME280;21130;51.728;8.748;2023-05-17T05:24:48;101217.47;;;7.01;100.00
34925;BME280;21130;51.728;8.748;2023-05-17T05:27:42;101227.97;;;7.12;100.00
34925;BME280;21130;51.728;8.748;2023-05-17T05:30:10;101225.91;;;7.34;100.00
34925;BME280;21130;51.728;8.748;2023-05-17T05:32:37;101234.50;;;7.53;100.00
34925;BME280;21130;51.728;8.748;2023-05-17T05:35:04;101237.91;;;7.55;100.00
34925;BME280;21130;51.728;8.748;2023-05-17T05:37:31;101233.91;;;7.71;100.00
34925;BME280;21130;51.728;8.748;2023-05-17T05:39:57;101239.28;;;7.86;100.00
34925;BME280;21130;51.728;8.748;2023-05-17T05:42:24;101238.44;;;7.98;100.00
34925;BME280;21130;51.728;8.748;2023-05-17T05:44:53;101241.00;;;7.93;100.00
34925;BME280;21130;51.728;8.748;2023-05-17T05:47:19;101236.34;;;8.20;100.00
34925;BME280;21130;51.728;8.748;2023-05-17T05:49:45;101240.41;;;8.31;100.00
34925;BME280;21130;51.728;8.748;2023-05-17T05:52:12;101248.88;;;8.10;100.00
34925;BME280;21130;51.728;8.748;2023-05-17T05:54:38;101245.72;;;8.33;100.00
34925;BME280;21130;51.728;8.748;2023-05-17T05:57:04;101250.19;;;8.20;100.00
34925;BME280;21130;51.728;8.748;2023-05-17T05:59:31;101246.19;;;8.43;100.00
34925;BME280;21130;51.728;8.748;2023-05-17T06:01:59;101253.63;;;8.56;100.00
34925;BME280;21130;51.728;8.748;2023-05-17T06:04:25;101259.38;;;8.61;100.00
34925;BME280;21130;51.728;8.748;2023-05-17T06:06:53;101254.06;;;8.53;100.00
34925;BME280;21130;51.728;8.748;2023-05-17T06:09:19;101257.66;;;8.47;100.00
34925;BME280;21130;51.728;8.748;2023-05-17T06:11:45;101264.84;;;8.34;100.00
34925;BME280;21130;51.728;8.748;2023-05-17T06:14:12;101270.81;;;8.31;100.00
34925;BME280;21130;51.728;8.748;2023-05-17T06:16:38;101271.03;;;8.23;100.00
34925;BME280;21130;51.728;8.748;2023-05-17T06:19:06;101277.63;;;8.15;100.00
34925;BME280;21130;51.728;8.748;2023-05-17T06:21:33;101280.38;;;8.22;100.00
34925;BME280;21130;51.728;8.748;2023-05-17T06:23:59;101278.69;;;8.34;100.00
34925;BME280;21130;51.728;8.748;2023-05-17T06:26:25;101283.19;;;8.35;100.00
34925;BME280;21130;51.728;8.748;2023-05-17T06:28:52;101278.94;;;8.39;100.00
34925;BME280;21130;51.728;8.748;2023-05-17T06:31:18;101281.91;;;8.64;100.00
34925;BME280;21130;51.728;8.748;2023-05-17T06:33:46;101281.31;;;8.56;100.00
34925;BME280;21130;51.728;8.748;2023-05-17T06:36:13;101288.72;;;8.62;100.00
34925;BME280;21130;51.728;8.748;2023-05-17T06:38:40;101288.31;;;8.52;100.00
34925;BME280;21130;51.728;8.748;2023-05-17T06:41:06;101284.28;;;8.61;100.00
34925;BME280;21130;51.728;8.748;2023-05-17T06:43:32;101286.84;;;8.56;100.00
34925;BME280;21130;51.728;8.748;2023-05-17T06:45:59;101287.69;;;8.63;100.00
34925;BME280;21130;51.728;8.748;2023-05-17T06:48:25;101288.31;;;8.58;100.00
34925;BME280;21130;51.728;8.748;2023-05-17T06:50:52;101297.91;;;8.76;100.00
34925;BME280;21130;51.728;8.748;2023-05-17T06:53:20;101297.03;;;8.49;100.00
34925;BME280;21130;51.728;8.748;2023-05-17T06:55:46;101290.41;;;8.36;100.00
34925;BME280;21130;51.728;8.748;2023-05-17T06:58:12;101297.03;;;8.49;100.00
34925;BME280;21130;51.728;8.748;2023-05-17T07:00:39;101292.34;;;8.42;100.00
34925;BME280;21130;51.728;8.748;2023-05-17T07:03:05;101302.16;;;8.52;100.00
34925;BME280;21130;51.728;8.748;2023-05-17T07:05:32;101305.31;;;8.35;100.00
34925;BME280;21130;51.728;8.748;2023-05-17T07:07:58;101305.34;;;8.49;100.00
34925;BME280;21130;51.728;8.748;2023-05-17T07:10:26;101306.19;;;8.69;100.00
34925;BME280;21130;51.728;8.748;2023-05-17T07:12:52;101307.03;;;8.90;100.00
34925;BME280;21130;51.728;8.748;2023-05-17T07:15:19;101309.97;;;9.15;100.00
34925;BME280;21130;51.728;8.748;2023-05-17T07:17:45;101312.50;;;9.29;100.00
34925;BME280;21130;51.728;8.748;2023-05-17T07:20:12;101319.78;;;9.30;100.00
34925;BME280;21130;51.728;8.748;2023-05-17T07:22:39;101318.63;;;9.58;100.00
34925;BME280;21130;51.728;8.748;2023-05-17T07:25:06;101319.88;;;9.62;100.00
34925;BME280;21130;51.728;8.748;2023-05-17T07:27:34;101327.03;;;9.12;100.00
34925;BME280;21130;51.728;8.748;2023-05-17T07:30:01;101334.69;;;9.16;100.00
34925;BME280;21130;51.728;8.748;2023-05-17T07:32:29;101332.16;;;9.08;100.00
34925;BME280;21130;51.728;8.748;2023-05-17T07:34:55;101337.25;;;8.98;100.00
34925;BME280;21130;51.728;8.748;2023-05-17T07:37:22;101336.19;;;9.12;100.00
34925;BME280;21130;51.728;8.748;2023-05-17T07:39:48;101349.59;;;9.22;100.00
34925;BME280;21130;51.728;8.748;2023-05-17T07:42:15;101341.50;;;9.27;100.00
34925;BME280;21130;51.728;8.748;2023-05-17T07:44:42;101346.22;;;9.13;100.00
34925;BME280;21130;51.728;8.748;2023-05-17T07:47:09;101357.50;;;9.05;100.00
34925;BME280;21130;51.728;8.748;2023-05-17T07:49:35;101353.06;;;8.91;100.00
34925;BME280;21130;51.728;8.748;2023-05-17T07:52:02;101364.94;;;8.98;100.00
34925;BME280;21130;51.728;8.748;2023-05-17T07:54:29;101368.25;;;9.66;100.00
34925;BME280;21130;51.728;8.748;2023-05-17T07:56:56;101362.97;;;10.10;100.00
34925;BME280;21130;51.728;8.748;2023-05-17T07:59:24;101358.25;;;10.55;100.00
34925;BME280;21130;51.728;8.748;2023-05-17T08:01:52;101360.47;;;11.03;100.00
34925;BME280;21130;51.728;8.748;2023-05-17T08:04:19;101353.75;;;11.11;100.00
34925;BME280;21130;51.728;8.748;2023-05-17T08:06:45;101364.69;;;11.31;100.00
34925;BME280;21130;51.728;8.748;2023-05-17T08:09:12;101365.84;;;11.42;100.00
34925;BME280;21130;51.728;8.748;2023-05-17T08:11:39;101366.06;;;11.40;100.00
34925;BME280;21130;51.728;8.748;2023-05-17T08:14:10;101371.31;;;11.05;100.00
34925;BME280;21130;51.728;8.748;2023-05-17T08:16:37;101376.41;;;11.33;100.00
34925;BME280;21130;51.728;8.748;2023-05-17T08:19:05;101362.78;;;11.68;100.00
34925;BME280;21130;51.728;8.748;2023-05-17T08:21:31;101366.56;;;11.74;100.00
34925;BME280;21130;51.728;8.748;2023-05-17T08:23:57;101378.47;;;11.63;100.00
34925;BME280;21130;51.728;8.748;2023-05-17T08:26:24;101369.97;;;11.58;100.00
34925;BME280;21130;51.728;8.748;2023-05-17T08:28:50;101366.06;;;11.40;100.00
34925;BME280;21130;51.728;8.748;2023-05-17T08:31:17;101368.63;;;11.23;100.00
34925;BME280;21130;51.728;8.748;2023-05-17T08:33:44;101369.72;;;10.91;100.00
34925;BME280;21130;51.728;8.748;2023-05-17T08:36:14;101384.25;;;10.93;100.00
34925;BME280;21130;51.728;8.748;2023-05-17T08:38:41;101367.19;;;10.89;100.00
34925;BME280;21130;51.728;8.748;2023-05-17T08:41:08;101373.56;;;10.96;100.00
34925;BME280;21130;51.728;8.748;2023-05-17T08:43:35;101376.88;;;10.80;100.00
34925;BME280;21130;51.728;8.748;2023-05-17T08:46:02;101371.63;;;10.97;100.00
34925;BME280;21130;51.728;8.748;2023-05-17T08:48:29;101373.81;;;11.75;100.00
34925;BME280;21130;51.728;8.748;2023-05-17T08:50:56;101374.63;;;12.49;100.00
34925;BME280;21130;51.728;8.748;2023-05-17T08:53:25;101367.38;;;12.60;87.97
34925;BME280;21130;51.728;8.748;2023-05-17T08:55:54;101369.41;;;12.53;80.57
34925;BME280;21130;51.728;8.748;2023-05-17T08:58:26;101368.56;;;12.22;75.15
34925;BME280;21130;51.728;8.748;2023-05-17T09:00:53;101372.53;;;11.96;89.85
34925;BME280;21130;51.728;8.748;2023-05-17T09:03:22;101371.31;;;11.30;95.21
34925;BME280;21130;51.728;8.748;2023-05-17T09:05:49;101386.34;;;10.27;100.00
34925;BME280;21130;51.728;8.748;2023-05-17T09:08:16;101380.69;;;10.54;100.00
34925;BME280;21130;51.728;8.748;2023-05-17T09:10:44;101374.78;;;11.69;100.00
34925;BME280;21130;51.728;8.748;2023-05-17T09:13:11;101381.53;;;11.73;95.62
34925;BME280;21130;51.728;8.748;2023-05-17T09:15:41;101377.47;;;11.14;99.05
34925;BME280;21130;51.728;8.748;2023-05-17T09:18:09;101388.56;;;10.57;100.00
34925;BME280;21130;51.728;8.748;2023-05-17T09:20:36;101397.09;;;10.10;100.00
34925;BME280;21130;51.728;8.748;2023-05-17T09:23:04;101392.78;;;10.28;100.00
34925;BME280;21130;51.728;8.748;2023-05-17T09:25:32;101394.69;;;10.97;97.95
34925;BME280;21130;51.728;8.748;2023-05-17T09:28:01;101386.47;;;11.09;88.90
34925;BME280;21130;51.728;8.748;2023-05-17T09:30:30;101383.41;;;12.35;87.07
34925;BME280;21130;51.728;8.748;2023-05-17T09:33:03;101385.97;;;13.55;68.94
34925;BME280;21130;51.728;8.748;2023-05-17T09:35:32;101382.06;;;14.32;63.53
34925;BME280;21130;51.728;8.748;2023-05-17T09:38:05;101375.78;;;14.13;52.55
34925;BME280;21130;51.728;8.748;2023-05-17T09:40:32;101374.38;;;13.99;54.61
34925;BME280;21130;51.728;8.748;2023-05-17T09:43:00;101377.75;;;14.41;52.78
34925;BME280;21130;51.728;8.748;2023-05-17T09:45:27;101379.78;;;13.30;54.09
34925;BME280;21130;51.728;8.748;2023-05-17T09:47:53;101379.38;;;12.30;60.45
34925;BME280;21130;51.728;8.748;2023-05-17T09:50:20;101381.19;;;11.88;63.02
34925;BME280;21130;51.728;8.748;2023-05-17T09:52:46;101382.34;;;12.17;61.46
34925;BME280;21130;51.728;8.748;2023-05-17T09:55:13;101377.75;;;12.23;66.00
34925;BME280;21130;51.728;8.748;2023-05-17T09:57:40;101388.03;;;12.83;57.24
34925;BME280;21130;51.728;8.748;2023-05-17T10:00:09;101380.06;;;12.56;55.87
34925;BME280;21130;51.728;8.748;2023-05-17T10:02:37;101382.38;;;11.99;60.95
34925;BME280;21130;51.728;8.748;2023-05-17T10:05:09;101386.25;;;12.28;67.25
34925;BME280;21130;51.728;8.748;2023-05-17T10:07:36;101394.38;;;12.29;72.70
34925;BME280;21130;51.728;8.748;2023-05-17T10:10:03;101383.16;;;13.55;62.93
34925;BME280;21130;51.728;8.748;2023-05-17T10:12:32;101381.94;;;14.84;54.68
34925;BME280;21130;51.728;8.748;2023-05-17T10:15:00;101383.56;;;14.80;48.39
34925;BME280;21130;51.728;8.748;2023-05-17T10:17:28;101385.59;;;13.75;48.29
34925;BME280;21130;51.728;8.748;2023-05-17T10:19:55;101386.19;;;13.66;51.06
34925;BME280;21130;51.728;8.748;2023-05-17T10:22:22;101395.66;;;13.65;53.66
34925;BME280;21130;51.728;8.748;2023-05-17T10:24:49;101392.69;;;13.12;57.35
34925;BME280;21130;51.728;8.748;2023-05-17T10:27:16;101396.06;;;12.49;59.10
34925;BME280;21130;51.728;8.748;2023-05-17T10:29:43;101389.41;;;12.01;56.48
34925;BME280;21130;51.728;8.748;2023-05-17T10:32:12;101390.16;;;12.57;57.74
34925;BME280;21130;51.728;8.748;2023-05-17T10:34:42;101379.28;;;13.68;56.33
34925;BME280;21130;51.728;8.748;2023-05-17T10:37:10;101387.84;;;14.02;53.68
34925;BME280;21130;51.728;8.748;2023-05-17T10:39:37;101387.25;;;13.76;51.48
34925;BME280;21130;51.728;8.748;2023-05-17T10:42:06;101382.34;;;13.55;50.43
34925;BME280;21130;51.728;8.748;2023-05-17T10:44:33;101381.38;;;13.49;49.68
34925;BME280;21130;51.728;8.748;2023-05-17T10:47:02;101385.53;;;13.05;52.60
34925;BME280;21130;51.728;8.748;2023-05-17T10:49:31;101383.31;;;12.83;58.26
34925;BME280;21130;51.728;8.748;2023-05-17T10:52:10;101391.69;;;12.95;56.57
34925;BME280;21130;51.728;8.748;2023-05-17T10:54:39;101378.09;;;13.52;57.86
34925;BME280;21130;51.728;8.748;2023-05-17T10:57:06;101382.81;;;13.28;51.66
34925;BME280;21130;51.728;8.748;2023-05-17T10:59:34;101378.50;;;13.96;56.58
34925;BME280;21130;51.728;8.748;2023-05-17T11:02:02;101376.50;;;13.68;54.19
34925;BME280;21130;51.728;8.748;2023-05-17T11:04:33;101382.56;;;13.53;53.59
34925;BME280;21130;51.728;8.748;2023-05-17T11:07:21;101367.84;;;13.93;50.56
34925;BME280;21130;51.728;8.748;2023-05-17T11:09:55;101376.41;;;14.03;48.21
34925;BME280;21130;51.728;8.748;2023-05-17T11:12:32;101379.53;;;14.19;47.27
34925;BME280;21130;51.728;8.748;2023-05-17T11:15:03;101372.34;;;14.52;44.59
34925;BME280;21130;51.728;8.748;2023-05-17T11:17:34;101375.47;;;14.38;50.20
34925;BME280;21130;51.728;8.748;2023-05-17T11:20:02;101368.50;;;15.15;48.00
34925;BME280;21130;51.728;8.748;2023-05-17T11:22:37;101364.00;;;14.23;47.32
34925;BME280;21130;51.728;8.748;2023-05-17T11:25:08;101365.97;;;14.39;48.18
34925;BME280;21130;51.728;8.748;2023-05-17T11:27:38;101364.00;;;14.23;46.79
34925;BME280;21130;51.728;8.748;2023-05-17T11:30:15;101351.66;;;15.66;46.68
34925;BME280;21130;51.728;8.748;2023-05-17T11:32:46;101354.47;;;15.32;45.47
34925;BME280;21130;51.728;8.748;2023-05-17T11:35:13;101362.09;;;15.70;43.88
34925;BME280;21130;51.728;8.748;2023-05-17T11:37:42;101366.03;;;15.02;46.26
34925;BME280;21130;51.728;8.748;2023-05-17T11:40:10;101359.47;;;14.79;47.76
34925;BME280;21130;51.728;8.748;2023-05-17T11:42:38;101369.13;;;14.72;49.24
34925;BME280;21130;51.728;8.748;2023-05-17T11:45:05;101367.63;;;14.81;46.11
34925;BME280;21130;51.728;8.748;2023-05-17T11:47:32;101368.97;;;14.21;50.38
34925;BME280;21130;51.728;8.748;2023-05-17T11:50:00;101359.31;;;14.69;53.39
34925;BME280;21130;51.728;8.748;2023-05-17T11:52:27;101376.63;;;14.14;49.47
34925;BME280;21130;51.728;8.748;2023-05-17T11:54:55;101367.19;;;13.27;49.44
34925;BME280;21130;51.728;8.748;2023-05-17T11:57:28;101378.03;;;13.99;52.37
34925;BME280;21130;51.728;8.748;2023-05-17T11:59:57;101374.69;;;14.55;49.25
34925;BME280;21130;51.728;8.748;2023-05-17T12:02:28;101365.09;;;14.96;47.05
34925;BME280;21130;51.728;8.748;2023-05-17T12:04:55;101364.66;;;15.04;45.66
34925;BME280;21130;51.728;8.748;2023-05-17T12:07:22;101361.78;;;15.50;45.20
34925;BME280;21130;51.728;8.748;2023-05-17T12:09:48;101361.25;;;16.36;45.37
34925;BME280;21130;51.728;8.748;2023-05-17T12:12:17;101362.09;;;16.14;43.12
34925;BME280;21130;51.728;8.748;2023-05-17T12:14:45;101369.34;;;15.88;42.89
34925;BME280;21130;51.728;8.748;2023-05-17T12:17:20;101362.56;;;15.67;44.37
34925;BME280;21130;51.728;8.748;2023-05-17T12:19:51;101369.59;;;15.14;42.37
34925;BME280;21130;51.728;8.748;2023-05-17T12:22:17;101376.38;;;14.27;44.20
34925;BME280;21130;51.728;8.748;2023-05-17T12:24:44;101385.22;;;13.72;47.40
34925;BME280;21130;51.728;8.748;2023-05-17T12:27:10;101378.94;;;13.29;47.70
34925;BME280;21130;51.728;8.748;2023-05-17T12:29:38;101380.16;;;14.09;48.55
34925;BME280;21130;51.728;8.748;2023-05-17T12:32:07;101369.97;;;14.55;45.24
34925;BME280;21130;51.728;8.748;2023-05-17T12:34:35;101368.66;;;15.25;43.54
34925;BME280;21130;51.728;8.748;2023-05-17T12:37:02;101365.03;;;15.81;44.65
34925;BME280;21130;51.728;8.748;2023-05-17T12:39:29;101361.25;;;16.63;41.30
34925;BME280;21130;51.728;8.748;2023-05-17T12:41:56;101360.81;;;17.36;41.59
34925;BME280;21130;51.728;8.748;2023-05-17T12:44:24;101369.31;;;16.32;41.61
34925;BME280;21130;51.728;8.748;2023-05-17T12:46:53;101373.59;;;15.57;43.38
34925;BME280;21130;51.728;8.748;2023-05-17T12:49:20;101374.31;;;15.47;46.39
34925;BME280;21130;51.728;8.748;2023-05-17T12:51:47;101384.28;;;14.07;45.50
34925;BME280;21130;51.728;8.748;2023-05-17T12:54:24;101379.00;;;13.93;45.27